sensor_id;sensor_type;location;lat;lon;timestamp;pressure;altitude;pressure_sealevel;temperature;humidity
62025;BME280;47978;49.118;12.146;2024-01-30T00:00:15;98964.84;;;-4.03;100.00
62025;BME280;47978;49.118;12.146;2024-01-30T00:04:17;98958.06;;;-3.99;100.00
62025;BME280;47978;49.118;12.146;2024-01-30T00:08:18;98960.28;;;-4.03;100.00
62025;BME280;47978;49.118;12.146;2024-01-30T00:12:21;98968.41;;;-4.11;100.00
62025;BME280;47978;49.118;12.146;2024-01-30T00:16:23;98961.97;;;-4.10;100.00
62025;BME280;47978;49.118;12.146;2024-01-30T00:20:25;98960.63;;;-4.06;100.00
62025;BME280;47978;49.118;12.146;2024-01-30T00:24:27;98955.28;;;-4.22;100.00
62025;BME280;47978;49.118;12.146;2024-01-30T00:28:30;98962.63;;;-4.39;100.00
62025;BME280;47978;49.118;12.146;2024-01-30T00:32:31;98962.94;;;-4.34;100.00
62025;BME280;47978;49.118;12.146;2024-01-30T00:36:33;98959.22;;;-4.33;100.00
62025;BME280;47978;49.118;12.146;2024-01-30T00:40:34;98954.03;;;-4.43;100.00
62025;BME280;47978;49.118;12.146;2024-01-30T00:44:37;98954.41;;;-4.54;100.00
62025;BME280;47978;49.118;12.146;2024-01-30T00:48:39;98948.88;;;-4.21;100.00
62025;BME280;47978;49.118;12.146;2024-01-30T00:52:40;98957.69;;;-4.36;100.00
62025;BME280;47978;49.118;12.146;2024-01-30T00:56:42;98964.41;;;-4.15;100.00
62025;BME280;47978;49.118;12.146;2024-01-30T01:00:45;98959.06;;;-4.32;100.00
62025;BME280;47978;49.118;12.146;2024-01-30T01:04:46;98951.69;;;-4.46;100.00
62025;BME280;47978;49.118;12.146;2024-01-30T01:08:48;98947.81;;;-4.52;100.00
62025;BME280;47978;49.118;12.146;2024-01-30T01:12:50;98947.47;;;-4.48;100.00
62025;BME280;47978;49.118;12.146;2024-01-30T01:16:52;98949.84;;;-4.54;100.00
62025;BME280;47978;49.118;12.146;2024-01-30T01:20:54;98957.81;;;-4.68;100.00
62025;BME280;47978;49.118;12.146;2024-01-30T01:24:55;98959.06;;;-4.32;100.00
62025;BME280;47978;49.118;12.146;2024-01-30T01:28:57;98959.09;;;-4.48;100.00
62025;BME280;47978;49.118;12.146;2024-01-30T01:33:00;98958.16;;;-4.63;100.00
62025;BME280;47978;49.118;12.146;2024-01-30T01:37:02;98962.53;;;-4.62;100.00
62025;BME280;47978;49.118;12.146;2024-01-30T01:41:03;98959.47;;;-4.59;100.00
62025;BME280;47978;49.118;12.146;2024-01-30T01:45:05;98962.72;;;-4.64;100.00
62025;BME280;47978;49.118;12.146;2024-01-30T01:49:08;98958.31;;;-4.73;100.00
62025;BME280;47978;49.118;12.146;2024-01-30T01:53:10;98947.50;;;-4.65;100.00
62025;BME280;47978;49.118;12.146;2024-01-30T01:57:13;98949.03;;;-4.62;100.00
62025;BME280;47978;49.118;12.146;2024-01-30T02:01:16;98949.38;;;-4.65;100.00
62025;BME280;47978;49.118;12.146;2024-01-30T02:05:21;98944.66;;;-4.63;100.00
62025;BME280;47978;49.118;12.146;2024-01-30T02:09:23;98955.94;;;-4.68;100.00
62025;BME280;47978;49.118;12.146;2024-01-30T02:13:25;98946.34;;;-4.70;100.00
62025;BME280;47978;49.118;12.146;2024-01-30T02:17:26;98948.06;;;-4.69;100.00
62025;BME280;47978;49.118;12.146;2024-01-30T02:21:29;98943.84;;;-4.72;100.00
62025;BME280;47978;49.118;12.146;2024-01-30T02:25:31;98945.66;;;-4.72;100.00
62025;BME280;47978;49.118;12.146;2024-01-30T02:29:33;98946.00;;;-4.67;100.00
62025;BME280;47978;49.118;12.146;2024-01-30T02:33:34;98945.16;;;-4.68;100.00
62025;BME280;47978;49.118;12.146;2024-01-30T02:37:37;98935.88;;;-4.65;100.00
62025;BME280;47978;49.118;12.146;2024-01-30T02:41:38;98936.88;;;-4.58;100.00
62025;BME280;47978;49.118;12.146;2024-01-30T02:45:40;98934.13;;;-4.50;100.00
62025;BME280;47978;49.118;12.146;2024-01-30T02:49:41;98934.47;;;-4.53;100.00
62025;BME280;47978;49.118;12.146;2024-01-30T02:53:44;98942.28;;;-4.58;100.00
62025;BME280;47978;49.118;12.146;2024-01-30T02:57:46;98941.28;;;-4.65;100.00
62025;BME280;47978;49.118;12.146;2024-01-30T03:01:47;98938.25;;;-4.79;100.00
62025;BME280;47978;49.118;12.146;2024-01-30T03:05:49;98930.84;;;-4.77;100.00
62025;BME280;47978;49.118;12.146;2024-01-30T03:09:52;98944.34;;;-4.85;100.00
62025;BME280;47978;49.118;12.146;2024-01-30T03:13:53;98939.97;;;-4.78;100.00
62025;BME280;47978;49.118;12.146;2024-01-30T03:17:55;98931.50;;;-4.66;100.00
62025;BME280;47978;49.118;12.146;2024-01-30T03:21:56;98939.94;;;-4.69;100.00
62025;BME280;47978;49.118;12.146;2024-01-30T03:25:59;98937.41;;;-4.71;100.00
62025;BME280;47978;49.118;12.146;2024-01-30T03:30:01;98933.72;;;-4.78;100.00
62025;BME280;47978;49.118;12.146;2024-01-30T03:34:02;98938.28;;;-4.87;100.00
62025;BME280;47978;49.118;12.146;2024-01-30T03:38:04;98948.06;;;-4.86;100.00
62025;BME280;47978;49.118;12.146;2024-01-30T03:42:07;98953.16;;;-5.07;100.00
62025;BME280;47978;49.118;12.146;2024-01-30T03:46:08;98954.00;;;-5.07;100.00
62025;BME280;47978;49.118;12.146;2024-01-30T03:50:10;98945.06;;;-5.07;100.00
62025;BME280;47978;49.118;12.146;2024-01-30T03:54:11;98948.94;;;-5.02;100.00
62025;BME280;47978;49.118;12.146;2024-01-30T03:58:14;98943.38;;;-4.92;100.00
62025;BME280;47978;49.118;12.146;2024-01-30T04:02:16;98937.97;;;-4.92;100.00
62025;BME280;47978;49.118;12.146;2024-01-30T04:06:17;98943.19;;;-4.90;100.00
62025;BME280;47978;49.118;12.146;2024-01-30T04:10:19;98939.63;;;-4.75;100.00
62025;BME280;47978;49.118;12.146;2024-01-30T04:14:22;98942.13;;;-4.73;100.00
62025;BME280;47978;49.118;12.146;2024-01-30T04:18:24;98937.19;;;-4.61;100.00
62025;BME280;47978;49.118;12.146;2024-01-30T04:22:25;98938.41;;;-4.64;100.00
62025;BME280;47978;49.118;12.146;2024-01-30T04:26:27;98940.44;;;-4.66;100.00
62025;BME280;47978;49.118;12.146;2024-01-30T04:30:30;98944.97;;;-4.58;100.00
62025;BME280;47978;49.118;12.146;2024-01-30T04:34:31;98936.03;;;-4.67;100.00
62025;BME280;47978;49.118;12.146;2024-01-30T04:38:33;98932.38;;;-4.82;100.00
62025;BME280;47978;49.118;12.146;2024-01-30T04:42:34;98937.44;;;-4.87;100.00
62025;BME280;47978;49.118;12.146;2024-01-30T04:46:37;98941.84;;;-4.86;100.00
62025;BME280;47978;49.118;12.146;2024-01-30T04:50:39;98939.50;;;-5.06;100.00
62025;BME280;47978;49.118;12.146;2024-01-30T04:54:40;98925.19;;;-5.06;100.00
62025;BME280;47978;49.118;12.146;2024-01-30T04:58:42;98927.56;;;-5.11;100.00
62025;BME280;47978;49.118;12.146;2024-01-30T05:02:45;98926.88;;;-5.05;100.00
62025;BME280;47978;49.118;12.146;2024-01-30T05:06:46;98932.09;;;-5.04;100.00
62025;BME280;47978;49.118;12.146;2024-01-30T05:10:48;98919.44;;;-5.03;100.00
62025;BME280;47978;49.118;12.146;2024-01-30T05:14:49;98909.50;;;-5.03;100.00
62025;BME280;47978;49.118;12.146;2024-01-30T05:18:52;98920.41;;;-4.88;100.00
62025;BME280;47978;49.118;12.146;2024-01-30T05:22:54;98918.69;;;-4.72;100.00
62025;BME280;47978;49.118;12.146;2024-01-30T05:26:55;98917.19;;;-4.75;100.00
62025;BME280;47978;49.118;12.146;2024-01-30T05:30:57;98920.97;;;-4.53;100.00
62025;BME280;47978;49.118;12.146;2024-01-30T05:35:00;98911.63;;;-4.82;100.00
62025;BME280;47978;49.118;12.146;2024-01-30T05:39:02;98923.25;;;-4.73;100.00
62025;BME280;47978;49.118;12.146;2024-01-30T05:43:06;98916.06;;;-4.89;100.00
62025;BME280;47978;49.118;12.146;2024-01-30T05:47:07;98916.69;;;-4.87;100.00
62025;BME280;47978;49.118;12.146;2024-01-30T05:51:10;98906.44;;;-4.91;100.00
62025;BME280;47978;49.118;12.146;2024-01-30T05:55:12;98906.44;;;-4.83;100.00
62025;BME280;47978;49.118;12.146;2024-01-30T05:59:14;98913.84;;;-4.93;100.00
62025;BME280;47978;49.118;12.146;2024-01-30T06:03:15;98911.47;;;-4.80;100.00
62025;BME280;47978;49.118;12.146;2024-01-30T06:07:18;98920.03;;;-4.60;100.00
62025;BME280;47978;49.118;12.146;2024-01-30T06:11:20;98913.00;;;-4.78;100.00
62025;BME280;47978;49.118;12.146;2024-01-30T06:15:21;98929.44;;;-4.56;100.00
62025;BME280;47978;49.118;12.146;2024-01-30T06:19:23;98955.13;;;-4.77;100.00
62025;BME280;47978;49.118;12.146;2024-01-30T06:23:26;98962.72;;;-4.72;100.00
62025;BME280;47978;49.118;12.146;2024-01-30T06:27:27;98970.97;;;-4.82;100.00
62025;BME280;47978;49.118;12.146;2024-01-30T06:31:28;98974.88;;;-4.92;100.00
62025;BME280;47978;49.118;12.146;2024-01-30T06:35:30;98971.69;;;-4.88;100.00
62025;BME280;47978;49.118;12.146;2024-01-30T06:39:33;98970.69;;;-4.95;100.00
62025;BME280;47978;49.118;12.146;2024-01-30T06:43:34;98970.50;;;-5.02;100.00
62025;BME280;47978;49.118;12.146;2024-01-30T06:47:36;98972.03;;;-5.07;100.00
62025;BME280;47978;49.118;12.146;2024-01-30T06:51:37;98968.69;;;-5.09;100.00
62025;BME280;47978;49.118;12.146;2024-01-30T06:55:40;98962.59;;;-5.03;100.00
62025;BME280;47978;49.118;12.146;2024-01-30T06:59:42;98968.97;;;-4.96;100.00
62025;BME280;47978;49.118;12.146;2024-01-30T07:03:43;98970.66;;;-4.87;100.00
62025;BME280;47978;49.118;12.146;2024-01-30T07:07:45;98970.00;;;-4.89;100.00
62025;BME280;47978;49.118;12.146;2024-01-30T07:11:48;98969.81;;;-4.87;100.00
62025;BME280;47978;49.118;12.146;2024-01-30T07:15:49;98970.66;;;-4.87;100.00
62025;BME280;47978;49.118;12.146;2024-01-30T07:19:51;98967.13;;;-4.87;100.00
62025;BME280;47978;49.118;12.146;2024-01-30T07:23:52;98971.81;;;-4.73;100.00
62025;BME280;47978;49.118;12.146;2024-01-30T07:27:55;98975.19;;;-4.71;100.00
62025;BME280;47978;49.118;12.146;2024-01-30T07:31:57;98977.72;;;-4.69;100.00
62025;BME280;47978;49.118;12.146;2024-01-30T07:35:58;98986.31;;;-4.58;100.00
62025;BME280;47978;49.118;12.146;2024-01-30T07:40:01;98984.78;;;-4.68;100.00
62025;BME280;47978;49.118;12.146;2024-01-30T07:44:04;98989.09;;;-4.35;100.00
62025;BME280;47978;49.118;12.146;2024-01-30T07:48:06;98987.81;;;-4.16;100.00
62025;BME280;47978;49.118;12.146;2024-01-30T07:52:08;98984.25;;;-3.69;100.00
62025;BME280;47978;49.118;12.146;2024-01-30T07:56:09;98999.28;;;-4.05;100.00
62025;BME280;47978;49.118;12.146;2024-01-30T08:00:14;99000.63;;;-3.70;100.00
62025;BME280;47978;49.118;12.146;2024-01-30T08:04:15;99003.94;;;-3.91;100.00
62025;BME280;47978;49.118;12.146;2024-01-30T08:08:17;99002.13;;;-4.07;100.00
62025;BME280;47978;49.118;12.146;2024-01-30T08:12:18;98999.81;;;-3.79;100.00
62025;BME280;47978;49.118;12.146;2024-01-30T08:16:21;98999.38;;;-3.59;100.00
62025;BME280;47978;49.118;12.146;2024-01-30T08:20:23;99007.16;;;-3.33;100.00
62025;BME280;47978;49.118;12.146;2024-01-30T08:24:25;99005.84;;;-3.14;100.00
62025;BME280;47978;49.118;12.146;2024-01-30T08:28:26;99000.97;;;-3.19;100.00
62025;BME280;47978;49.118;12.146;2024-01-30T08:32:29;98996.41;;;-3.19;100.00
62025;BME280;47978;49.118;12.146;2024-01-30T08:36:31;98999.81;;;-3.02;100.00
62025;BME280;47978;49.118;12.146;2024-01-30T08:40:32;98993.63;;;-2.87;100.00
62025;BME280;47978;49.118;12.146;2024-01-30T08:44:34;98995.97;;;-2.69;100.00
62025;BME280;47978;49.118;12.146;2024-01-30T08:48:37;98984.63;;;-2.50;100.00
62025;BME280;47978;49.118;12.146;2024-01-30T08:52:39;98970.03;;;-2.34;100.00
62025;BME280;47978;49.118;12.146;2024-01-30T08:56:40;98982.38;;;-2.02;100.00
62025;BME280;47978;49.118;12.146;2024-01-30T09:00:42;98990.31;;;-2.00;100.00
62025;BME280;47978;49.118;12.146;2024-01-30T09:04:45;98991.50;;;-1.88;100.00
62025;BME280;47978;49.118;12.146;2024-01-30T09:08:47;98988.19;;;-1.69;100.00
62025;BME280;47978;49.118;12.146;2024-01-30T09:12:48;98989.16;;;-1.76;100.00
62025;BME280;47978;49.118;12.146;2024-01-30T09:16:50;98979.41;;;-1.71;100.00
62025;BME280;47978;49.118;12.146;2024-01-30T09:20:52;98986.31;;;-1.32;100.00
62025;BME280;47978;49.118;12.146;2024-01-30T09:24:54;98984.75;;;-0.98;100.00
62025;BME280;47978;49.118;12.146;2024-01-30T09:28:55;98986.13;;;-0.87;100.00
62025;BME280;47978;49.118;12.146;2024-01-30T09:32:57;98976.25;;;-0.67;100.00
62025;BME280;47978;49.118;12.146;2024-01-30T09:37:00;98985.00;;;-0.43;100.00
62025;BME280;47978;49.118;12.146;2024-01-30T09:41:05;98990.81;;;-0.47;100.00
62025;BME280;47978;49.118;12.146;2024-01-30T09:45:10;98988.50;;;-0.15;100.00
62025;BME280;47978;49.118;12.146;2024-01-30T09:49:15;98984.38;;;-0.11;100.00
62025;BME280;47978;49.118;12.146;2024-01-30T09:53:21;98991.16;;;0.68;100.00
62025;BME280;47978;49.118;12.146;2024-01-30T09:57:22;98981.81;;;0.97;100.00
62025;BME280;47978;49.118;12.146;2024-01-30T10:01:23;98982.00;;;1.02;100.00
62025;BME280;47978;49.118;12.146;2024-01-30T10:05:27;98979.72;;;1.32;100.00
62025;BME280;47978;49.118;12.146;2024-01-30T10:09:31;98982.25;;;1.47;100.00
62025;BME280;47978;49.118;12.146;2024-01-30T10:13:32;98974.84;;;1.88;98.95
62025;BME280;47978;49.118;12.146;2024-01-30T10:17:34;98970.47;;;1.80;99.75
62025;BME280;47978;49.118;12.146;2024-01-30T10:21:38;98973.81;;;1.89;99.25
62025;BME280;47978;49.118;12.146;2024-01-30T10:25:41;98968.09;;;2.03;100.00
62025;BME280;47978;49.118;12.146;2024-01-30T10:29:42;98960.72;;;2.11;100.00
62025;BME280;47978;49.118;12.146;2024-01-30T10:33:44;98963.19;;;2.19;100.00
62025;BME280;47978;49.118;12.146;2024-01-30T10:37:47;98960.50;;;2.12;99.71
62025;BME280;47978;49.118;12.146;2024-01-30T10:41:50;98955.84;;;2.26;99.71
62025;BME280;47978;49.118;12.146;2024-01-30T10:45:57;98945.34;;;2.61;99.11
62025;BME280;47978;49.118;12.146;2024-01-30T10:49:59;98937.22;;;2.55;98.48
62025;BME280;47978;49.118;12.146;2024-01-30T10:54:01;98934.81;;;2.72;97.20
62025;BME280;47978;49.118;12.146;2024-01-30T10:58:04;98937.91;;;2.82;96.32
62025;BME280;47978;49.118;12.146;2024-01-30T11:02:06;98930.28;;;2.90;96.35
62025;BME280;47978;49.118;12.146;2024-01-30T11:06:10;98936.16;;;2.87;96.58
62025;BME280;47978;49.118;12.146;2024-01-30T11:10:12;98929.22;;;2.60;98.41
62025;BME280;47978;49.118;12.146;2024-01-30T11:14:15;98931.19;;;2.46;98.36
62025;BME280;47978;49.118;12.146;2024-01-30T11:18:22;98921.53;;;2.75;94.73
62025;BME280;47978;49.118;12.146;2024-01-30T11:22:24;98915.47;;;3.05;92.20
62025;BME280;47978;49.118;12.146;2024-01-30T11:26:27;98916.59;;;3.41;88.83
62025;BME280;47978;49.118;12.146;2024-01-30T11:30:31;98914.50;;;3.61;87.46
62025;BME280;47978;49.118;12.146;2024-01-30T11:34:33;98911.19;;;3.59;87.82
62025;BME280;47978;49.118;12.146;2024-01-30T11:38:34;98917.19;;;3.86;85.40
62025;BME280;47978;49.118;12.146;2024-01-30T11:42:36;98915.38;;;3.98;82.75
62025;BME280;47978;49.118;12.146;2024-01-30T11:46:39;98917.09;;;4.29;81.61
62025;BME280;47978;49.118;12.146;2024-01-30T11:50:40;98912.00;;;4.33;81.97
62025;BME280;47978;49.118;12.146;2024-01-30T11:54:42;98914.50;;;4.35;80.91
62025;BME280;47978;49.118;12.146;2024-01-30T11:58:43;98893.88;;;4.50;79.94
62025;BME280;47978;49.118;12.146;2024-01-30T12:02:49;98892.56;;;4.53;81.17
62025;BME280;47978;49.118;12.146;2024-01-30T12:06:52;98889.97;;;4.58;78.74
62025;BME280;47978;49.118;12.146;2024-01-30T12:10:57;98884.28;;;4.71;79.42
62025;BME280;47978;49.118;12.146;2024-01-30T12:14:58;98886.97;;;4.60;78.55
62025;BME280;47978;49.118;12.146;2024-01-30T12:19:01;98876.81;;;4.79;77.70
62025;BME280;47978;49.118;12.146;2024-01-30T12:23:03;98885.03;;;4.79;77.04
62025;BME280;47978;49.118;12.146;2024-01-30T12:27:04;98887.44;;;4.87;78.09
62025;BME280;47978;49.118;12.146;2024-01-30T12:31:05;98870.75;;;5.00;79.98
62025;BME280;47978;49.118;12.146;2024-01-30T12:35:09;98873.91;;;5.15;80.06
62025;BME280;47978;49.118;12.146;2024-01-30T12:39:11;98874.47;;;5.06;82.02
62025;BME280;47978;49.118;12.146;2024-01-30T12:43:13;98870.41;;;4.96;81.74
62025;BME280;47978;49.118;12.146;2024-01-30T12:47:24;98871.97;;;4.92;82.73
62025;BME280;47978;49.118;12.146;2024-01-30T12:51:27;98869.09;;;4.99;82.42
62025;BME280;47978;49.118;12.146;2024-01-30T12:55:29;98866.97;;;5.25;80.54
62025;BME280;47978;49.118;12.146;2024-01-30T12:59:30;98857.94;;;5.24;80.65
62025;BME280;47978;49.118;12.146;2024-01-30T13:03:32;98855.31;;;5.41;79.80
62025;BME280;47978;49.118;12.146;2024-01-30T13:07:36;98850.38;;;5.43;80.32
62025;BME280;47978;49.118;12.146;2024-01-30T13:11:37;98839.06;;;5.39;80.83
62025;BME280;47978;49.118;12.146;2024-01-30T13:15:38;98840.13;;;5.15;82.09
62025;BME280;47978;49.118;12.146;2024-01-30T13:19:40;98839.06;;;5.39;82.12
62025;BME280;47978;49.118;12.146;2024-01-30T13:23:43;98833.22;;;5.48;82.45
62025;BME280;47978;49.118;12.146;2024-01-30T13:27:44;98835.72;;;5.37;82.83
62025;BME280;47978;49.118;12.146;2024-01-30T13:31:46;98840.97;;;5.39;83.88
62025;BME280;47978;49.118;12.146;2024-01-30T13:35:47;98838.69;;;5.59;82.70
62025;BME280;47978;49.118;12.146;2024-01-30T13:39:50;98839.59;;;5.89;75.37
62025;BME280;47978;49.118;12.146;2024-01-30T13:43:51;98829.09;;;6.09;77.52
62025;BME280;47978;49.118;12.146;2024-01-30T13:47:53;98835.47;;;6.15;77.33
62025;BME280;47978;49.118;12.146;2024-01-30T13:51:55;98838.03;;;5.93;77.05
62025;BME280;47978;49.118;12.146;2024-01-30T13:55:59;98828.59;;;6.12;76.53
62025;BME280;47978;49.118;12.146;2024-01-30T14:00:01;98829.47;;;5.89;78.11
62025;BME280;47978;49.118;12.146;2024-01-30T14:04:02;98830.19;;;5.96;78.12
62025;BME280;47978;49.118;12.146;2024-01-30T14:08:06;98832.22;;;5.77;77.13
62025;BME280;47978;49.118;12.146;2024-01-30T14:12:09;98835.66;;;5.84;75.96
62025;BME280;47978;49.118;12.146;2024-01-30T14:16:10;98836.28;;;5.75;75.89
62025;BME280;47978;49.118;12.146;2024-01-30T14:20:11;98841.66;;;5.93;74.36
62025;BME280;47978;49.118;12.146;2024-01-30T14:24:13;98845.22;;;5.82;75.31
62025;BME280;47978;49.118;12.146;2024-01-30T14:28:15;98846.06;;;5.94;73.87
62025;BME280;47978;49.118;12.146;2024-01-30T14:32:17;98852.75;;;5.98;77.45
62025;BME280;47978;49.118;12.146;2024-01-30T14:36:18;98847.81;;;6.00;75.66
62025;BME280;47978;49.118;12.146;2024-01-30T14:40:20;98854.81;;;5.56;77.45
62025;BME280;47978;49.118;12.146;2024-01-30T14:44:23;98855.75;;;5.26;80.18
62025;BME280;47978;49.118;12.146;2024-01-30T14:48:24;98860.53;;;4.95;82.42
62025;BME280;47978;49.118;12.146;2024-01-30T14:52:26;98863.91;;;4.67;84.61
62025;BME280;47978;49.118;12.146;2024-01-30T14:56:27;98869.28;;;4.14;86.97
62025;BME280;47978;49.118;12.146;2024-01-30T15:00:30;98869.25;;;3.83;88.50
62025;BME280;47978;49.118;12.146;2024-01-30T15:04:32;98867.03;;;3.55;91.29
62025;BME280;47978;49.118;12.146;2024-01-30T15:08:34;98857.81;;;3.50;92.74
62025;BME280;47978;49.118;12.146;2024-01-30T15:12:35;98863.94;;;3.08;96.00
62025;BME280;47978;49.118;12.146;2024-01-30T15:16:38;98868.31;;;3.09;96.09
62025;BME280;47978;49.118;12.146;2024-01-30T15:20:40;98861.81;;;2.85;97.32
62025;BME280;47978;49.118;12.146;2024-01-30T15:24:41;98872.50;;;2.62;99.89
62025;BME280;47978;49.118;12.146;2024-01-30T15:28:43;98864.41;;;2.42;100.00
62025;BME280;47978;49.118;12.146;2024-01-30T15:32:46;98869.66;;;2.43;100.00
62025;BME280;47978;49.118;12.146;2024-01-30T15:36:47;98870.16;;;2.27;100.00
62025;BME280;47978;49.118;12.146;2024-01-30T15:40:48;98867.09;;;2.10;100.00
62025;BME280;47978;49.118;12.146;2024-01-30T15:44:50;98869.47;;;2.00;100.00
62025;BME280;47978;49.118;12.146;2024-01-30T15:48:53;98877.13;;;1.78;100.00
62025;BME280;47978;49.118;12.146;2024-01-30T15:52:54;98887.03;;;1.66;100.00
62025;BME280;47978;49.118;12.146;2024-01-30T15:56:56;98880.97;;;1.50;100.00
62025;BME280;47978;49.118;12.146;2024-01-30T16:00:57;98891.91;;;1.37;100.00
62025;BME280;47978;49.118;12.146;2024-01-30T16:05:00;98895.50;;;1.18;100.00
62025;BME280;47978;49.118;12.146;2024-01-30T16:09:01;98902.41;;;1.13;100.00
62025;BME280;47978;49.118;12.146;2024-01-30T16:13:03;98904.50;;;0.98;100.00
62025;BME280;47978;49.118;12.146;2024-01-30T16:17:04;98903.03;;;0.96;100.00
62025;BME280;47978;49.118;12.146;2024-01-30T16:21:07;98900.94;;;0.78;100.00
62025;BME280;47978;49.118;12.146;2024-01-30T16:25:09;98902.81;;;0.84;100.00
62025;BME280;47978;49.118;12.146;2024-01-30T16:29:11;98912.44;;;0.73;100.00
62025;BME280;47978;49.118;12.146;2024-01-30T16:33:12;98908.66;;;0.67;100.00
62025;BME280;47978;49.118;12.146;2024-01-30T16:37:15;98911.59;;;0.53;100.00
62025;BME280;47978;49.118;12.146;2024-01-30T16:41:17;98909.22;;;0.36;100.00
62025;BME280;47978;49.118;12.146;2024-01-30T16:45:18;98917.38;;;0.30;100.00
62025;BME280;47978;49.118;12.146;2024-01-30T16:49:20;98923.06;;;0.35;100.00
62025;BME280;47978;49.118;12.146;2024-01-30T16:53:23;98930.81;;;0.38;100.00
62025;BME280;47978;49.118;12.146;2024-01-30T16:57:24;98941.00;;;0.22;100.00
62025;BME280;47978;49.118;12.146;2024-01-30T17:01:25;98948.09;;;0.17;100.00
62025;BME280;47978;49.118;12.146;2024-01-30T17:05:27;98947.06;;;0.18;100.00
62025;BME280;47978;49.118;12.146;2024-01-30T17:09:30;98953.09;;;0.13;100.00
62025;BME280;47978;49.118;12.146;2024-01-30T17:13:31;98949.53;;;0.13;100.00
62025;BME280;47978;49.118;12.146;2024-01-30T17:17:33;98940.75;;;0.11;100.00
62025;BME280;47978;49.118;12.146;2024-01-30T17:21:34;98938.66;;;0.06;100.00
62025;BME280;47978;49.118;12.146;2024-01-30T17:25:37;98939.84;;;-0.03;100.00
62025;BME280;47978;49.118;12.146;2024-01-30T17:29:38;98934.97;;;-0.21;100.00
62025;BME280;47978;49.118;12.146;2024-01-30T17:33:40;98946.03;;;-0.22;100.00
62025;BME280;47978;49.118;12.146;2024-01-30T17:37:41;98941.34;;;-0.35;100.00
62025;BME280;47978;49.118;12.146;2024-01-30T17:41:44;98946.59;;;-0.34;100.00
62025;BME280;47978;49.118;12.146;2024-01-30T17:45:46;98943.25;;;-0.36;100.00
62025;BME280;47978;49.118;12.146;2024-01-30T17:49:47;98940.50;;;-0.42;100.00
62025;BME280;47978;49.118;12.146;2024-01-30T17:53:48;98951.38;;;-0.42;100.00
62025;BME280;47978;49.118;12.146;2024-01-30T17:57:51;98957.38;;;-0.47;100.00
62025;BME280;47978;49.118;12.146;2024-01-30T18:01:53;98952.34;;;-0.50;100.00
62025;BME280;47978;49.118;12.146;2024-01-30T18:05:54;98960.47;;;-0.57;100.00
62025;BME280;47978;49.118;12.146;2024-01-30T18:09:56;98954.63;;;-0.54;100.00
62025;BME280;47978;49.118;12.146;2024-01-30T18:13:58;98959.16;;;-0.61;100.00
62025;BME280;47978;49.118;12.146;2024-01-30T18:18:00;98964.34;;;-0.66;100.00
62025;BME280;47978;49.118;12.146;2024-01-30T18:22:01;98974.22;;;-0.58;100.00
62025;BME280;47978;49.118;12.146;2024-01-30T18:26:03;98979.38;;;-0.70;100.00
62025;BME280;47978;49.118;12.146;2024-01-30T18:30:06;98979.50;;;-0.78;100.00
62025;BME280;47978;49.118;12.146;2024-01-30T18:34:08;98981.53;;;-0.59;100.00
62025;BME280;47978;49.118;12.146;2024-01-30T18:38:10;98984.00;;;-0.64;100.00
62025;BME280;47978;49.118;12.146;2024-01-30T18:42:11;98977.06;;;-0.73;100.00
62025;BME280;47978;49.118;12.146;2024-01-30T18:46:14;98981.38;;;-0.79;100.00
62025;BME280;47978;49.118;12.146;2024-01-30T18:50:16;98978.81;;;-0.87;100.00
62025;BME280;47978;49.118;12.146;2024-01-30T18:54:17;98981.41;;;-1.00;100.00
62025;BME280;47978;49.118;12.146;2024-01-30T18:58:18;98994.84;;;-0.92;100.00
62025;BME280;47978;49.118;12.146;2024-01-30T19:02:21;98981.47;;;-0.94;100.00
62025;BME280;47978;49.118;12.146;2024-01-30T19:06:23;98974.44;;;-0.88;100.00
62025;BME280;47978;49.118;12.146;2024-01-30T19:10:24;98976.06;;;-0.94;100.00
62025;BME280;47978;49.118;12.146;2024-01-30T19:14:40;98971.91;;;-0.89;100.00
62025;BME280;47978;49.118;12.146;2024-01-30T19:18:42;98981.66;;;-0.95;100.00
62025;BME280;47978;49.118;12.146;2024-01-30T19:22:44;98977.00;;;-1.01;100.00
62025;BME280;47978;49.118;12.146;2024-01-30T19:26:45;98988.00;;;-1.09;100.00
62025;BME280;47978;49.118;12.146;2024-01-30T19:30:47;98984.00;;;-1.14;100.00
62025;BME280;47978;49.118;12.146;2024-01-30T19:34:49;98976.09;;;-1.08;100.00
62025;BME280;47978;49.118;12.146;2024-01-30T19:38:51;98975.19;;;-0.94;100.00
62025;BME280;47978;49.118;12.146;2024-01-30T19:42:52;98976.44;;;-0.97;100.00
62025;BME280;47978;49.118;12.146;2024-01-30T19:46:54;98978.94;;;-0.95;100.00
62025;BME280;47978;49.118;12.146;2024-01-30T19:50:56;98989.66;;;-1.08;100.00
62025;BME280;47978;49.118;12.146;2024-01-30T19:54:58;98987.16;;;-1.10;100.00
62025;BME280;47978;49.118;12.146;2024-01-30T19:59:00;98969.13;;;-0.96;100.00
62025;BME280;47978;49.118;12.146;2024-01-30T20:03:02;98983.53;;;-0.96;100.00
62025;BME280;47978;49.118;12.146;2024-01-30T20:07:05;98980.88;;;-0.89;100.00
62025;BME280;47978;49.118;12.146;2024-01-30T20:11:13;98981.78;;;-1.03;100.00
62025;BME280;47978;49.118;12.146;2024-01-30T20:15:15;98975.91;;;-1.07;100.00
62025;BME280;47978;49.118;12.146;2024-01-30T20:19:17;98982.19;;;-1.06;100.00
62025;BME280;47978;49.118;12.146;2024-01-30T20:23:20;98982.19;;;-1.06;100.00
62025;BME280;47978;49.118;12.146;2024-01-30T20:27:21;98981.53;;;-1.08;100.00
62025;BME280;47978;49.118;12.146;2024-01-30T20:31:23;98977.97;;;-1.09;100.00
62025;BME280;47978;49.118;12.146;2024-01-30T20:35:25;98978.41;;;-1.05;100.00
62025;BME280;47978;49.118;12.146;2024-01-30T20:39:27;98995.94;;;-0.86;100.00
62025;BME280;47978;49.118;12.146;2024-01-30T20:43:29;98993.22;;;-0.86;100.00
62025;BME280;47978;49.118;12.146;2024-01-30T20:47:30;98995.38;;;-1.03;100.00
62025;BME280;47978;49.118;12.146;2024-01-30T20:51:32;98993.38;;;-1.16;100.00
62025;BME280;47978;49.118;12.146;2024-01-30T20:55:34;98992.72;;;-1.18;100.00